Sheyenne, North Dakota
Current Conditions -  °F | °C
As of 8:55 PM on Tuesday 25 Nov 2014 (Local Time) from KDVL Reporting Station
Broken Clouds Broken Clouds  
Wind Chill: -20°   Ceiling: 4200
Heat Index: -11°   Visibility: 5mi
Dew Point: -17°   Wind: 16mph
Humidity: 62%   Direction: 30°NNE
Pressure: 30.03"   Gusts: 21mph
Location:  47.83°N, 99.12°W
Report Text: KDVL 260255Z AUTO 03014G18KT 5SM FEW012 SCT024 BKN042 M11/M17 A3003 RMK AO1 52041
Loading
Personal Weather Stations






























Interactive Weather Map New forecast layout! Learn more

10-Day Weather Forecast

Advertisements
Track Severe Weather on mobile